< < Back
Terminal Aerodrome Forecast


Current Version              Previous Versions:   1  2  3  4  5  6  7  8  9  

Terminal Aerodrome Forecast

651
FTUS44 KOHX 231400 AAA
TAFBNA
TAF AMD
KBNA 231413Z 2314/2412 04010KT P6SM FEW250
     FM240200 VRB04KT P6SM SCT250
     FM240900 12003KT P6SM FEW250=



Latest METAR

657
SAUS70 KWBC 240300 RRD
MTRBNA
METAR KBNA 240253Z 00000KT 10SM CLR 14/02 A3002 RMK AO2 SLP163 T01390017
51011


USA.gov is the U.S. government's official web portal to all federal, state and local government web resources and services.